Time;durP1;ratioP1;P1;durP2;ratioP2;P2;SDS_P1;SDS_P2;PMS_P1;PMS_P2;Temp;Humidity;BMP_temperature;BMP_pressure;BME280_temperature;BME280_humidity;BME280_pressure;Samples;Min_cycle;Max_cycle;Signal;HPM_P1;HPM_P2
2023/11/09 00:02:00;;;;;;;0.10;0.10;;;;;;;;;;10363659;28;20018;-67
2023/11/09 00:07:01;;;;;;;0.10;0.10;;;;;;;;;;10357662;28;20124;-68
2023/11/09 00:12:01;;;;;;;0.10;0.10;;;;;;;;;;10375389;28;20013;-67
2023/11/09 00:17:01;;;;;;;0.10;0.10;;;;;;;;;;10375049;28;20040;-68
2023/11/09 00:22:01;;;;;;;0.10;0.10;;;;;;;;;;10373432;28;20018;-65
2023/11/09 00:27:02;;;;;;;0.10;0.10;;;;;;;;;;10375622;28;20028;-67
2023/11/09 00:32:02;;;;;;;0.10;0.10;;;;;;;;;;10380034;28;20300;-68
2023/11/09 00:37:04;;;;;;;0.10;0.10;;;;;;;;;;10383848;28;20017;-67
2023/11/09 00:42:07;;;;;;;0.10;0.10;;;;;;;;;;10377344;28;20017;-67
2023/11/09 00:47:07;;;;;;;0.10;0.10;;;;;;;;;;10372758;28;20025;-68
2023/11/09 00:52:08;;;;;;;0.10;0.10;;;;;;;;;;10378439;28;20026;-67
2023/11/09 00:57:08;;;;;;;0.03;0.03;;;;;;;;;;10372631;28;20586;-67
2023/11/09 01:02:08;;;;;;;0.00;0.00;;;;;;;;;;10376955;28;20014;-67
2023/11/09 01:07:11;;;;;;;0.10;0.10;;;;;;;;;;10375164;28;20037;-68
2023/11/09 01:12:11;;;;;;;0.10;0.10;;;;;;;;;;10384562;28;20025;-67
2023/11/09 01:17:12;;;;;;;0.00;0.00;;;;;;;;;;10379069;28;20490;-67
2023/11/09 01:22:12;;;;;;;0.10;0.10;;;;;;;;;;10367258;28;20014;-67
2023/11/09 01:27:12;;;;;;;0.00;0.00;;;;;;;;;;10361933;28;20041;-68
2023/11/09 01:32:12;;;;;;;0.10;0.10;;;;;;;;;;10362736;28;20011;-68
2023/11/09 01:37:13;;;;;;;0.00;0.00;;;;;;;;;;10354623;28;20022;-68
2023/11/09 01:42:13;;;;;;;0.00;0.00;;;;;;;;;;10358044;28;20015;-67
2023/11/09 01:47:14;;;;;;;0.10;0.10;;;;;;;;;;10385976;28;20281;-68
2023/11/09 01:52:14;;;;;;;0.10;0.10;;;;;;;;;;10368200;28;20026;-68
2023/11/09 01:57:14;;;;;;;0.10;0.10;;;;;;;;;;10372037;28;20029;-69
2023/11/09 02:02:14;;;;;;;0.10;0.10;;;;;;;;;;10373625;28;20041;-68
2023/11/09 02:07:16;;;;;;;0.00;0.00;;;;;;;;;;10381256;28;20048;-68
2023/11/09 02:12:16;;;;;;;0.00;0.00;;;;;;;;;;10370200;28;20014;-68
2023/11/09 02:17:17;;;;;;;0.00;0.00;;;;;;;;;;10379693;28;20021;-68
2023/11/09 02:22:17;;;;;;;0.10;0.10;;;;;;;;;;10381092;28;20175;-68
2023/11/09 02:27:18;;;;;;;0.10;0.10;;;;;;;;;;10370931;28;20104;-68
2023/11/09 02:32:18;;;;;;;0.00;0.00;;;;;;;;;;10372394;28;20048;-67
2023/11/09 02:37:19;;;;;;;0.10;0.10;;;;;;;;;;10381082;28;20116;-67
2023/11/09 02:42:20;;;;;;;0.10;0.10;;;;;;;;;;10365929;28;20028;-67
2023/11/09 02:47:20;;;;;;;0.05;0.05;;;;;;;;;;10356709;28;20040;-67
2023/11/09 02:52:20;;;;;;;0.00;0.00;;;;;;;;;;10367761;28;20121;-67
2023/11/09 02:57:20;;;;;;;0.00;0.00;;;;;;;;;;10359194;28;20497;-67
2023/11/09 03:02:21;;;;;;;0.00;0.00;;;;;;;;;;10349043;28;20052;-67
2023/11/09 03:07:22;;;;;;;0.10;0.10;;;;;;;;;;10360040;28;20033;-67
2023/11/09 03:12:22;;;;;;;0.10;0.10;;;;;;;;;;10358854;28;20022;-68
2023/11/09 03:17:22;;;;;;;0.10;0.10;;;;;;;;;;10352726;28;20387;-69
2023/11/09 03:22:22;;;;;;;0.10;0.10;;;;;;;;;;10344892;28;20045;-68
2023/11/09 03:27:22;;;;;;;0.10;0.10;;;;;;;;;;10347968;28;20018;-68
2023/11/09 03:32:23;;;;;;;0.10;0.10;;;;;;;;;;10358285;28;20232;-69
2023/11/09 03:37:23;;;;;;;0.00;0.00;;;;;;;;;;10348250;28;20017;-69
2023/11/09 03:42:24;;;;;;;0.00;0.00;;;;;;;;;;10343073;28;20160;-69
2023/11/09 03:47:24;;;;;;;0.10;0.10;;;;;;;;;;10349759;28;20387;-68
2023/11/09 03:52:27;;;;;;;0.00;0.00;;;;;;;;;;10346888;28;20508;-69
2023/11/09 03:57:27;;;;;;;0.00;0.00;;;;;;;;;;10354282;28;20022;-71
2023/11/09 04:02:28;;;;;;;0.05;0.05;;;;;;;;;;10373541;28;20018;-71
2023/11/09 04:07:28;;;;;;;0.10;0.10;;;;;;;;;;10371681;28;20492;-71
2023/11/09 04:12:28;;;;;;;0.00;0.00;;;;;;;;;;10381134;28;20476;-71
2023/11/09 04:17:29;;;;;;;0.10;0.10;;;;;;;;;;10372468;28;20029;-71
2023/11/09 04:22:29;;;;;;;0.10;0.10;;;;;;;;;;10382098;28;20428;-70
2023/11/09 04:27:29;;;;;;;0.10;0.10;;;;;;;;;;10378114;28;20333;-71
2023/11/09 04:32:29;;;;;;;0.10;0.10;;;;;;;;;;10381155;28;20025;-71
2023/11/09 04:37:30;;;;;;;0.10;0.10;;;;;;;;;;10383981;28;20046;-70
2023/11/09 04:42:31;;;;;;;0.10;0.10;;;;;;;;;;10365622;28;20093;-71
2023/11/09 04:47:32;;;;;;;0.00;0.00;;;;;;;;;;10383638;28;20112;-71
2023/11/09 04:52:33;;;;;;;0.10;0.10;;;;;;;;;;10365672;28;20018;-71
2023/11/09 05:08:12;;;;;;;0.10;0.10;;;;;;;;;;10383247;28;20096;-71
2023/11/09 05:13:14;;;;;;;0.10;0.10;;;;;;;;;;10387976;28;20026;-70
2023/11/09 05:18:14;;;;;;;0.10;0.10;;;;;;;;;;10375166;28;20460;-71
2023/11/09 05:23:14;;;;;;;0.10;0.10;;;;;;;;;;10370773;28;20018;-70
2023/11/09 05:28:14;;;;;;;0.10;0.10;;;;;;;;;;10375816;28;20464;-70
2023/11/09 05:33:14;;;;;;;0.10;0.10;;;;;;;;;;10391769;28;20026;-71
2023/11/09 05:38:15;;;;;;;0.10;0.10;;;;;;;;;;10370815;28;20038;-71
2023/11/09 05:43:15;;;;;;;0.10;0.10;;;;;;;;;;10394376;28;20030;-70
2023/11/09 05:48:16;;;;;;;0.00;0.00;;;;;;;;;;10393229;28;20476;-71
2023/11/09 05:53:16;;;;;;;0.08;0.08;;;;;;;;;;10370737;28;20018;-71
2023/11/09 05:58:17;;;;;;;0.10;0.10;;;;;;;;;;10391221;28;20022;-72
2023/11/09 06:03:17;;;;;;;0.10;0.10;;;;;;;;;;10386991;28;20068;-72
2023/11/09 06:08:18;;;;;;;0.10;0.10;;;;;;;;;;10345194;28;20023;-72
2023/11/09 06:13:19;;;;;;;0.10;0.10;;;;;;;;;;10378609;28;20117;-72
2023/11/09 06:18:19;;;;;;;0.10;0.10;;;;;;;;;;10372596;28;20036;-71
2023/11/09 06:23:19;;;;;;;0.10;0.10;;;;;;;;;;10371558;28;20088;-71
2023/11/09 06:28:20;;;;;;;0.10;0.10;;;;;;;;;;10372349;28;20308;-71
2023/11/09 06:33:20;;;;;;;0.10;0.10;;;;;;;;;;10413254;28;20025;-71
2023/11/09 06:38:20;;;;;;;0.10;0.10;;;;;;;;;;10417464;28;20108;-71
2023/11/09 06:43:20;;;;;;;0.10;0.10;;;;;;;;;;10401054;28;20017;-71
2023/11/09 06:48:21;;;;;;;0.10;0.10;;;;;;;;;;10406143;28;20030;-71
2023/11/09 06:53:22;;;;;;;0.10;0.10;;;;;;;;;;10394328;28;20094;-72
2023/11/09 06:58:22;;;;;;;0.10;0.10;;;;;;;;;;10405878;28;20040;-72
2023/11/09 07:03:22;;;;;;;0.10;0.10;;;;;;;;;;10375739;28;20025;-73
2023/11/09 07:08:28;;;;;;;0.00;0.00;;;;;;;;;;10374717;28;20387;-72
2023/11/09 07:13:28;;;;;;;0.10;0.10;;;;;;;;;;10374309;28;20032;-72
2023/11/09 07:18:28;;;;;;;0.10;0.10;;;;;;;;;;10395424;28;20023;-72
2023/11/09 07:23:29;;;;;;;0.00;0.00;;;;;;;;;;10405804;28;20131;-72
2023/11/09 07:28:31;;;;;;;0.10;0.10;;;;;;;;;;10414655;28;20525;-71
2023/11/09 07:33:31;;;;;;;0.10;0.10;;;;;;;;;;10415655;28;20018;-71
2023/11/09 07:38:31;;;;;;;0.03;0.03;;;;;;;;;;10415916;28;20071;-72
2023/11/09 07:43:31;;;;;;;0.10;0.10;;;;;;;;;;10414734;28;20104;-71
2023/11/09 07:48:32;;;;;;;0.10;0.10;;;;;;;;;;10394488;28;20018;-71
2023/11/09 07:53:33;;;;;;;0.08;0.08;;;;;;;;;;10373636;28;20018;-73
2023/11/09 07:58:34;;;;;;;0.10;0.10;;;;;;;;;;10387207;28;20018;-72
2023/11/09 08:03:34;;;;;;;0.10;0.10;;;;;;;;;;10373317;28;20257;-71
2023/11/09 08:08:35;;;;;;;0.10;0.10;;;;;;;;;;10389435;28;20395;-71
2023/11/09 08:13:35;;;;;;;0.10;0.10;;;;;;;;;;10382118;28;20429;-71
2023/11/09 08:18:35;;;;;;;0.10;0.10;;;;;;;;;;10388521;28;20013;-71
2023/11/09 08:23:36;;;;;;;0.10;0.10;;;;;;;;;;10385285;28;20021;-71
2023/11/09 08:28:37;;;;;;;0.00;0.00;;;;;;;;;;10371206;28;20018;-72
2023/11/09 08:33:37;;;;;;;0.00;0.00;;;;;;;;;;10371094;28;20101;-72
2023/11/09 08:38:39;;;;;;;0.10;0.10;;;;;;;;;;10377420;28;20108;-71
2023/11/09 08:43:39;;;;;;;0.10;0.10;;;;;;;;;;10383069;28;20514;-70
2023/11/09 08:48:40;;;;;;;0.10;0.10;;;;;;;;;;10387466;28;20104;-71
2023/11/09 08:53:41;;;;;;;0.00;0.00;;;;;;;;;;10374035;28;20021;-71
2023/11/09 08:58:41;;;;;;;0.10;0.10;;;;;;;;;;10372839;28;20029;-71
2023/11/09 09:03:43;;;;;;;0.10;0.10;;;;;;;;;;10375195;28;20029;-70
2023/11/09 09:08:45;;;;;;;0.00;0.00;;;;;;;;;;10366934;28;20013;-71
2023/11/09 09:13:45;;;;;;;0.10;0.10;;;;;;;;;;10369641;28;20036;-71
2023/11/09 09:18:47;;;;;;;0.10;0.10;;;;;;;;;;10372991;28;20025;-70
2023/11/09 09:23:49;;;;;;;0.10;0.10;;;;;;;;;;10372835;28;20032;-70
2023/11/09 09:28:51;;;;;;;0.10;0.10;;;;;;;;;;10363991;28;20024;-71
2023/11/09 09:34:02;;;;;;;0.10;0.10;;;;;;;;;;10371030;28;20026;-70
2023/11/09 09:39:03;;;;;;;0.10;0.10;;;;;;;;;;10362990;28;20026;-70
2023/11/09 09:44:03;;;;;;;0.10;0.10;;;;;;;;;;10374071;28;20053;-71
2023/11/09 09:49:04;;;;;;;0.10;0.10;;;;;;;;;;10375954;28;20531;-70
2023/11/09 09:54:08;;;;;;;0.10;0.10;;;;;;;;;;10371498;28;20208;-70
2023/11/09 09:59:09;;;;;;;0.10;0.10;;;;;;;;;;10374475;28;20030;-70
2023/11/09 10:04:10;;;;;;;0.10;0.10;;;;;;;;;;10368512;28;20026;-70
2023/11/09 10:09:11;;;;;;;0.10;0.10;;;;;;;;;;10375574;28;20024;-71
2023/11/09 10:14:11;;;;;;;0.00;0.00;;;;;;;;;;10375602;28;20495;-70
2023/11/09 10:19:13;;;;;;;0.00;0.00;;;;;;;;;;10368806;28;20028;-70
2023/11/09 10:24:14;;;;;;;0.10;0.10;;;;;;;;;;10375496;28;20473;-71
2023/11/09 10:29:15;;;;;;;0.00;0.00;;;;;;;;;;10374119;28;20028;-70
2023/11/09 10:34:15;;;;;;;0.10;0.10;;;;;;;;;;10373858;28;20119;-70
2023/11/09 10:39:25;;;;;;;0.10;0.10;;;;;;;;;;10369823;28;20049;-70
2023/11/09 10:44:29;;;;;;;0.10;0.10;;;;;;;;;;10395962;28;20087;-71
2023/11/09 10:49:31;;;;;;;0.10;0.10;;;;;;;;;;10417504;28;20025;-72
2023/11/09 10:54:32;;;;;;;0.10;0.10;;;;;;;;;;10409091;28;20057;-71
2023/11/09 10:59:40;;;;;;;0.10;0.10;;;;;;;;;;10378554;28;20045;-71
2023/11/09 11:04:41;;;;;;;0.10;0.10;;;;;;;;;;10372917;28;20024;-71
2023/11/09 11:09:44;;;;;;;0.10;0.10;;;;;;;;;;10379226;28;20020;-72
2023/11/09 11:14:46;;;;;;;0.10;0.10;;;;;;;;;;10378216;28;20020;-71
2023/11/09 11:20:08;;;;;;;0.10;0.10;;;;;;;;;;10376620;28;20024;-71
2023/11/09 11:25:19;;;;;;;0.10;0.10;;;;;;;;;;10390162;28;20067;-71
2023/11/09 11:30:23;;;;;;;0.10;0.10;;;;;;;;;;10370907;28;20113;-70
2023/11/09 11:35:38;;;;;;;0.10;0.10;;;;;;;;;;10364097;28;20109;-70
2023/11/09 11:40:39;;;;;;;0.10;0.10;;;;;;;;;;10366612;28;20026;-70
2023/11/09 11:45:40;;;;;;;0.10;0.10;;;;;;;;;;10370077;28;20018;-70
2023/11/09 11:50:41;;;;;;;0.10;0.10;;;;;;;;;;10375303;28;20026;-70
2023/11/09 11:56:15;;;;;;;0.00;0.00;;;;;;;;;;10380361;28;20032;-70
2023/11/09 12:01:27;;;;;;;0.10;0.10;;;;;;;;;;10360042;28;20468;-70
2023/11/09 12:06:28;;;;;;;0.10;0.10;;;;;;;;;;10373934;28;20017;-70
2023/11/09 12:11:33;;;;;;;0.00;0.00;;;;;;;;;;10382573;28;20041;-71
2023/11/09 12:16:34;;;;;;;0.10;0.10;;;;;;;;;;10379288;28;20528;-71
2023/11/09 12:21:34;;;;;;;0.00;0.00;;;;;;;;;;10379059;28;20079;-71
2023/11/09 12:26:36;;;;;;;0.10;0.10;;;;;;;;;;10383476;28;20014;-71
2023/11/09 12:31:36;;;;;;;0.10;0.10;;;;;;;;;;10374138;28;20070;-71
2023/11/09 12:36:38;;;;;;;0.10;0.10;;;;;;;;;;10378351;28;20054;-70
2023/11/09 12:41:39;;;;;;;0.00;0.00;;;;;;;;;;10393067;28;20033;-71
2023/11/09 12:46:39;;;;;;;0.00;0.00;;;;;;;;;;10364248;28;20394;-71
2023/11/09 12:51:40;;;;;;;0.10;0.10;;;;;;;;;;10381426;28;20112;-71
2023/11/09 12:56:44;;;;;;;0.10;0.10;;;;;;;;;;10378329;28;20017;-71
2023/11/09 13:01:44;;;;;;;0.03;0.03;;;;;;;;;;10384280;28;20108;-71
2023/11/09 13:06:44;;;;;;;0.00;0.00;;;;;;;;;;10377912;28;20108;-71
2023/11/09 13:11:46;;;;;;;0.10;0.10;;;;;;;;;;10380670;28;20076;-71
2023/11/09 13:16:47;;;;;;;0.10;0.10;;;;;;;;;;10374546;28;20026;-70
2023/11/09 13:21:48;;;;;;;0.10;0.10;;;;;;;;;;10380192;28;20018;-71
2023/11/09 13:26:49;;;;;;;0.10;0.10;;;;;;;;;;10376578;28;20112;-71
2023/11/09 13:31:56;;;;;;;0.10;0.10;;;;;;;;;;10371873;28;20113;-70
2023/11/09 13:36:57;;;;;;;0.00;0.00;;;;;;;;;;10373189;28;20023;-71
2023/11/09 13:42:05;;;;;;;0.10;0.10;;;;;;;;;;10374184;28;20027;-71
2023/11/09 13:47:08;;;;;;;0.10;0.10;;;;;;;;;;10384932;28;20383;-71
2023/11/09 13:52:18;;;;;;;0.10;0.10;;;;;;;;;;10378155;28;20018;-70
2023/11/09 13:57:19;;;;;;;0.10;0.10;;;;;;;;;;10382192;28;20025;-71
2023/11/09 14:02:27;;;;;;;0.10;0.10;;;;;;;;;;10380131;28;20010;-70
2023/11/09 14:07:32;;;;;;;0.10;0.10;;;;;;;;;;10379043;28;20013;-70
2023/11/09 14:12:45;;;;;;;0.10;0.10;;;;;;;;;;10376831;28;20022;-70
2023/11/09 14:17:49;;;;;;;0.00;0.00;;;;;;;;;;10371354;28;20164;-70
2023/11/09 14:22:50;;;;;;;0.10;0.10;;;;;;;;;;10381939;28;20060;-70
2023/11/09 14:27:50;;;;;;;0.10;0.10;;;;;;;;;;10369467;28;20105;-70
2023/11/09 14:32:51;;;;;;;0.10;0.10;;;;;;;;;;10376749;28;20026;-70
2023/11/09 14:37:51;;;;;;;0.10;0.10;;;;;;;;;;10365178;28;20496;-70
2023/11/09 14:42:53;;;;;;;0.00;0.00;;;;;;;;;;10370872;28;20022;-70
2023/11/09 14:47:54;;;;;;;0.10;0.10;;;;;;;;;;10369804;28;20281;-70
2023/11/09 14:57:54;;;;;;;0.10;0.10;;;;;;;;;;10371107;28;20079;-70
2023/11/09 15:02:56;;;;;;;0.10;0.10;;;;;;;;;;10358811;28;20050;-71
2023/11/09 15:07:57;;;;;;;0.05;0.05;;;;;;;;;;10374404;28;20025;-71
2023/11/09 15:12:58;;;;;;;0.10;0.10;;;;;;;;;;10354717;28;20048;-70
2023/11/09 15:18:01;;;;;;;0.10;0.10;;;;;;;;;;10359673;28;20010;-70
2023/11/09 15:23:05;;;;;;;0.00;0.00;;;;;;;;;;10355770;28;20019;-69
2023/11/09 15:28:05;;;;;;;;;;;;;;;;;;10354829;28;20023;-70
2023/11/09 15:33:06;;;;;;;0.10;0.10;;;;;;;;;;10352226;28;19906;-70
2023/11/09 15:38:07;;;;;;;0.00;0.00;;;;;;;;;;10360653;28;20014;-70
2023/11/09 15:43:10;;;;;;;0.10;0.10;;;;;;;;;;10347894;28;20019;-71
2023/11/09 15:48:10;;;;;;;0.10;0.10;;;;;;;;;;10350271;28;20400;-69
2023/11/09 15:53:10;;;;;;;0.10;0.10;;;;;;;;;;10351639;28;20030;-70
2023/11/09 15:58:11;;;;;;;0.10;0.10;;;;;;;;;;10341435;28;20032;-70
2023/11/09 16:03:12;;;;;;;0.10;0.10;;;;;;;;;;10347592;28;20022;-69
2023/11/09 16:08:12;;;;;;;0.00;0.00;;;;;;;;;;10343586;28;20018;-69
2023/11/09 16:13:14;;;;;;;0.10;0.10;;;;;;;;;;10341841;28;20465;-69
2023/11/09 16:18:14;;;;;;;0.10;0.10;;;;;;;;;;10345462;28;20014;-70
2023/11/09 16:23:16;;;;;;;0.00;0.00;;;;;;;;;;10341719;28;20025;-69
2023/11/09 16:28:20;;;;;;;0.10;0.10;;;;;;;;;;10348812;28;20010;-69
2023/11/09 16:33:20;;;;;;;0.10;0.10;;;;;;;;;;10353172;28;20064;-70
2023/11/09 16:38:21;;;;;;;0.00;0.00;;;;;;;;;;10343251;28;20041;-71
2023/11/09 16:43:22;;;;;;;0.10;0.10;;;;;;;;;;10345306;28;20132;-70
2023/11/09 16:48:23;;;;;;;0.00;0.00;;;;;;;;;;10340476;28;20036;-70
2023/11/09 16:53:24;;;;;;;0.00;0.00;;;;;;;;;;10339724;28;20036;-70
2023/11/09 16:58:26;;;;;;;0.00;0.00;;;;;;;;;;10340581;28;20026;-70
2023/11/09 17:03:26;;;;;;;0.10;0.10;;;;;;;;;;10349801;28;20510;-70
2023/11/09 17:08:26;;;;;;;0.10;0.10;;;;;;;;;;10342010;28;20018;-70
2023/11/09 17:13:26;;;;;;;0.10;0.10;;;;;;;;;;10338323;28;20010;-70
2023/11/09 17:18:26;;;;;;;0.10;0.10;;;;;;;;;;10357602;28;20113;-70
2023/11/09 17:23:27;;;;;;;0.10;0.10;;;;;;;;;;10372828;28;20018;-70
2023/11/09 17:28:30;;;;;;;0.00;0.00;;;;;;;;;;10361003;28;20466;-70
2023/11/09 17:33:31;;;;;;;0.10;0.10;;;;;;;;;;10371269;28;20545;-70
2023/11/09 17:38:31;;;;;;;0.10;0.10;;;;;;;;;;10375276;28;20062;-69
2023/11/09 17:43:31;;;;;;;0.00;0.00;;;;;;;;;;10373359;28;20478;-70
2023/11/09 17:48:32;;;;;;;0.10;0.10;;;;;;;;;;10380082;28;20029;-69
2023/11/09 17:53:33;;;;;;;0.00;0.00;;;;;;;;;;10369547;28;20100;-69
2023/11/09 17:58:33;;;;;;;0.00;0.00;;;;;;;;;;10373915;28;20014;-69
2023/11/09 18:03:34;;;;;;;0.10;0.10;;;;;;;;;;10363828;28;20418;-70
2023/11/09 18:08:34;;;;;;;0.10;0.10;;;;;;;;;;10373220;28;20071;-70
2023/11/09 18:13:34;;;;;;;0.00;0.00;;;;;;;;;;10370935;28;20133;-69
2023/11/09 18:18:34;;;;;;;0.10;0.10;;;;;;;;;;10375058;28;20318;-69
2023/11/09 18:23:35;;;;;;;0.00;0.00;;;;;;;;;;10365416;28;20434;-68
2023/11/09 18:28:36;;;;;;;0.10;0.10;;;;;;;;;;10371433;28;20044;-69
2023/11/09 18:33:36;;;;;;;0.10;0.10;;;;;;;;;;10378445;28;20100;-69
2023/11/09 18:38:36;;;;;;;0.00;0.00;;;;;;;;;;10374833;28;20570;-69
2023/11/09 18:43:37;;;;;;;0.10;0.10;;;;;;;;;;10380346;28;20018;-69
2023/11/09 18:48:37;;;;;;;0.00;0.00;;;;;;;;;;10362527;28;20018;-69
2023/11/09 18:53:37;;;;;;;0.00;0.00;;;;;;;;;;10363867;28;20048;-69
2023/11/09 18:58:37;;;;;;;0.00;0.00;;;;;;;;;;10377613;28;20029;-69
2023/11/09 19:03:37;;;;;;;0.08;0.08;;;;;;;;;;10377944;28;20256;-69
2023/11/09 19:08:38;;;;;;;0.00;0.00;;;;;;;;;;10375112;28;20025;-69
2023/11/09 19:13:38;;;;;;;0.00;0.00;;;;;;;;;;10364690;28;20101;-69
2023/11/09 19:18:39;;;;;;;0.05;0.05;;;;;;;;;;10370819;28;20025;-69
2023/11/09 19:23:39;;;;;;;0.00;0.00;;;;;;;;;;10376841;28;20080;-69
2023/11/09 19:28:40;;;;;;;0.00;0.00;;;;;;;;;;10372557;28;20022;-69
2023/11/09 19:33:40;;;;;;;0.10;0.10;;;;;;;;;;10367125;28;20026;-69
2023/11/09 19:38:41;;;;;;;0.10;0.10;;;;;;;;;;10379359;28;20372;-69
2023/11/09 19:43:41;;;;;;;0.00;0.00;;;;;;;;;;10370260;28;20018;-69
2023/11/09 19:48:42;;;;;;;0.00;0.00;;;;;;;;;;10362881;28;20068;-69
2023/11/09 19:53:43;;;;;;;0.00;0.00;;;;;;;;;;10369636;28;20029;-70
2023/11/09 19:58:43;;;;;;;0.10;0.10;;;;;;;;;;10363793;28;20018;-70
2023/11/09 20:03:44;;;;;;;0.00;0.00;;;;;;;;;;10377206;28;20018;-70
2023/11/09 20:08:44;;;;;;;0.00;0.00;;;;;;;;;;10374002;28;20025;-70
2023/11/09 20:13:44;;;;;;;0.10;0.10;;;;;;;;;;10371504;28;20152;-70
2023/11/09 20:18:45;;;;;;;0.10;0.10;;;;;;;;;;10377475;28;20017;-70
2023/11/09 20:23:45;;;;;;;0.10;0.10;;;;;;;;;;10366942;28;20418;-69
2023/11/09 20:28:47;;;;;;;0.10;0.10;;;;;;;;;;10374275;28;20284;-70
2023/11/09 20:33:47;;;;;;;0.00;0.00;;;;;;;;;;10375599;28;20018;-70
2023/11/09 20:38:48;;;;;;;0.00;0.00;;;;;;;;;;10367125;28;20009;-69
2023/11/09 20:43:49;;;;;;;0.10;0.10;;;;;;;;;;10376229;28;20025;-69
2023/11/09 20:48:49;;;;;;;0.10;0.10;;;;;;;;;;10382582;28;20029;-69
2023/11/09 20:53:50;;;;;;;0.00;0.00;;;;;;;;;;10367031;28;20060;-69
2023/11/09 20:58:50;;;;;;;0.10;0.10;;;;;;;;;;10371136;28;20018;-69
2023/11/09 21:03:50;;;;;;;0.10;0.10;;;;;;;;;;10372212;28;20114;-69
2023/11/09 21:08:51;;;;;;;0.00;0.00;;;;;;;;;;10367060;28;20022;-69
2023/11/09 21:13:52;;;;;;;0.00;0.00;;;;;;;;;;10369830;28;20464;-69
2023/11/09 21:18:52;;;;;;;0.00;0.00;;;;;;;;;;10373996;28;20029;-70
2023/11/09 21:23:53;;;;;;;0.00;0.00;;;;;;;;;;10370228;28;20029;-69
2023/11/09 21:28:53;;;;;;;0.10;0.10;;;;;;;;;;10369396;28;20363;-69
2023/11/09 21:33:53;;;;;;;0.00;0.00;;;;;;;;;;10369743;28;20475;-69
2023/11/09 21:38:54;;;;;;;0.08;0.08;;;;;;;;;;10369907;28;20009;-69
2023/11/09 21:43:57;;;;;;;0.10;0.10;;;;;;;;;;10367268;28;20018;-69
2023/11/09 21:48:57;;;;;;;0.00;0.00;;;;;;;;;;10373925;28;20260;-69
2023/11/09 21:53:57;;;;;;;0.00;0.00;;;;;;;;;;10367985;28;20479;-69
2023/11/09 21:58:57;;;;;;;0.00;0.00;;;;;;;;;;10365634;28;20064;-69
2023/11/09 22:03:58;;;;;;;0.10;0.10;;;;;;;;;;10354883;28;20029;-70
2023/11/09 22:08:59;;;;;;;0.10;0.10;;;;;;;;;;10382835;28;20014;-70
2023/11/09 22:14:00;;;;;;;0.03;0.03;;;;;;;;;;10372326;28;20022;-70
2023/11/09 22:19:02;;;;;;;0.10;0.10;;;;;;;;;;10383676;28;20379;-70
2023/11/09 22:24:03;;;;;;;0.00;0.00;;;;;;;;;;10380200;28;20013;-70
2023/11/09 22:29:03;;;;;;;0.10;0.10;;;;;;;;;;10377715;28;20105;-71
2023/11/09 22:34:04;;;;;;;0.00;0.00;;;;;;;;;;10386679;28;20395;-70
2023/11/09 22:39:05;;;;;;;0.00;0.00;;;;;;;;;;10371168;28;20021;-70
2023/11/09 22:44:05;;;;;;;0.10;0.10;;;;;;;;;;10360572;28;20045;-70
2023/11/09 22:49:06;;;;;;;0.10;0.10;;;;;;;;;;10370265;28;20026;-69
2023/11/09 22:54:06;;;;;;;0.10;0.10;;;;;;;;;;10367351;28;20076;-71
2023/11/09 22:59:06;;;;;;;0.10;0.10;;;;;;;;;;10369521;28;20013;-71
2023/11/09 23:04:07;;;;;;;0.10;0.10;;;;;;;;;;10375665;28;20010;-70
2023/11/09 23:09:07;;;;;;;0.10;0.10;;;;;;;;;;10365190;28;20059;-71
2023/11/09 23:14:07;;;;;;;0.00;0.00;;;;;;;;;;10382089;28;20025;-70
2023/11/09 23:19:08;;;;;;;0.10;0.10;;;;;;;;;;10379879;28;20021;-71
2023/11/09 23:24:08;;;;;;;0.10;0.10;;;;;;;;;;10380653;28;20133;-70
2023/11/09 23:29:08;;;;;;;0.00;0.00;;;;;;;;;;10382998;28;20577;-70
2023/11/09 23:34:08;;;;;;;0.10;0.10;;;;;;;;;;10374844;28;20025;-70
2023/11/09 23:39:09;;;;;;;0.10;0.10;;;;;;;;;;10394432;28;20009;-71
2023/11/09 23:44:09;;;;;;;0.00;0.00;;;;;;;;;;10390823;28;20109;-71
2023/11/09 23:49:09;;;;;;;0.00;0.00;;;;;;;;;;10393324;28;20531;-71
2023/11/09 23:54:09;;;;;;;0.10;0.10;;;;;;;;;;10384576;28;20026;-71
2023/11/09 23:59:10;;;;;;;0.10;0.10;;;;;;;;;;10385765;28;20538;-71
